Time;durP1;ratioP1;P1;durP2;ratioP2;P2;SDS_P1;SDS_P2;PMS_P1;PMS_P2;Temp;Humidity;BMP_temperature;BMP_pressure;BME280_temperature;BME280_humidity;BME280_pressure;Samples;Min_cycle;Max_cycle;Signal;HPM_P1;HPM_P2
2023/12/19 00:00:07;;;;;;;12.37;11.17;;;;;;;1.88;100.00;101613.94;5074724;28;20178;-77
2023/12/19 00:02:32;;;;;;;11.87;10.60;;;;;;;1.87;100.00;101608.75;5077547;28;20186;-76
2023/12/19 00:04:58;;;;;;;13.03;10.27;;;;;;;1.88;100.00;101607.97;5075602;28;20196;-77
2023/12/19 00:07:23;;;;;;;12.10;10.83;;;;;;;1.87;100.00;101586.66;5072854;28;20211;-76
2023/12/19 00:09:49;;;;;;;11.67;10.47;;;;;;;1.88;100.00;101585.00;5074905;28;20220;-77
2023/12/19 00:12:14;;;;;;;11.63;10.43;;;;;;;1.89;100.00;101573.97;5074080;28;20198;-76
2023/12/19 00:14:40;;;;;;;11.00;9.90;;;;;;;1.85;100.00;101575.50;5075193;28;20199;-77
2023/12/19 00:17:05;;;;;;;10.50;9.50;;;;;;;1.80;100.00;101569.31;5072788;28;20204;-76
2023/12/19 00:19:30;;;;;;;13.77;11.03;;;;;;;1.78;100.00;101568.34;5078221;28;20276;-77
2023/12/19 00:21:56;;;;;;;10.50;9.43;;;;;;;1.75;100.00;101569.06;5076261;28;20197;-77
2023/12/19 00:24:21;;;;;;;13.63;12.23;;;;;;;1.77;100.00;101569.16;5073630;28;20276;-75
2023/12/19 00:26:47;;;;;;;12.80;11.50;;;;;;;1.77;100.00;101570.00;5075941;28;20228;-77
2023/12/19 00:29:12;;;;;;;12.37;11.07;;;;;;;1.75;100.00;101571.63;5076378;28;20571;-77
2023/12/19 00:31:37;;;;;;;12.00;10.33;;;;;;;1.72;100.00;101581.69;5074501;28;20753;-78
2023/12/19 00:34:03;;;;;;;12.03;10.83;;;;;;;1.72;100.00;101576.59;5076046;28;20200;-77
2023/12/19 00:36:28;;;;;;;13.10;11.70;;;;;;;1.76;100.00;101575.06;5081756;28;20177;-76
2023/12/19 00:38:54;;;;;;;12.53;11.13;;;;;;;1.73;100.00;101575.81;5079562;28;20658;-77
2023/12/19 00:41:19;;;;;;;14.20;12.70;;;;;;;1.74;100.00;101569.88;5077037;28;20177;-77
2023/12/19 00:43:45;;;;;;;13.87;12.47;;;;;;;1.75;100.00;101565.66;5081747;28;20184;-78
2023/12/19 00:46:11;;;;;;;13.97;12.57;;;;;;;1.74;100.00;101561.34;5075113;28;20219;-77
2023/12/19 00:48:36;;;;;;;14.67;13.10;;;;;;;1.74;100.00;101569.88;5080888;28;20214;-78
2023/12/19 00:51:07;;;;;;;15.53;13.90;;;;;;;1.73;100.00;101573.25;5077531;28;20464;-78
2023/12/19 00:53:33;;;;;;;15.10;12.37;;;;;;;1.74;100.00;101594.53;5076725;28;21163;-77
2023/12/19 00:55:58;;;;;;;15.10;13.60;;;;;;;1.71;100.00;101607.13;5074382;28;20192;-77
2023/12/19 00:58:23;;;;;;;15.37;13.77;;;;;;;1.68;100.00;101610.41;5079914;28;20197;-77
2023/12/19 01:00:49;;;;;;;15.27;13.73;;;;;;;1.70;100.00;101603.72;5075443;28;20200;-77
2023/12/19 01:03:14;;;;;;;15.50;13.90;;;;;;;1.70;100.00;101605.38;5077678;28;20221;-76
2023/12/19 01:05:39;;;;;;;16.13;14.40;;;;;;;1.72;100.00;101598.69;5079198;28;20177;-77
2023/12/19 01:08:05;;;;;;;15.23;13.57;;;;;;;1.71;100.00;101591.81;5074217;28;20241;-75
2023/12/19 01:10:30;;;;;;;13.27;11.93;;;;;;;1.68;100.00;101588.31;5078475;28;20216;-76
2023/12/19 01:12:56;;;;;;;13.30;11.93;;;;;;;1.65;100.00;101583.09;5083001;28;20185;-78
2023/12/19 01:15:22;;;;;;;14.27;12.87;;;;;;;1.65;100.00;101579.63;5074256;28;20188;-77
2023/12/19 01:17:47;;;;;;;12.90;11.60;;;;;;;1.63;100.00;101573.59;5073531;28;20204;-78
2023/12/19 01:20:12;;;;;;;12.40;11.20;;;;;;;1.59;100.00;101582.78;5070689;28;20169;-77
2023/12/19 01:22:38;;;;;;;12.00;10.33;;;;;;;1.58;100.00;101582.72;5079437;28;20352;-78
2023/12/19 01:25:03;;;;;;;11.30;10.20;;;;;;;1.56;100.00;101582.63;5079995;28;20192;-77
2023/12/19 01:27:29;;;;;;;11.73;10.53;;;;;;;1.56;100.00;101580.06;5078140;28;20273;-77
2023/12/19 01:29:54;;;;;;;11.13;10.03;;;;;;;1.53;100.00;101582.47;5075029;28;20205;-78
2023/12/19 01:32:19;;;;;;;10.40;9.30;;;;;;;1.51;100.00;101607.91;5075761;28;20185;-77
2023/12/19 01:34:46;;;;;;;10.93;9.47;;;;;;;1.48;100.00;101630.72;5078623;28;20246;-77
2023/12/19 01:37:11;;;;;;;10.83;9.73;;;;;;;1.47;100.00;101628.09;5081773;28;20787;-77
2023/12/19 01:39:37;;;;;;;11.70;10.50;;;;;;;1.45;100.00;101599.94;5080273;28;20276;-77
2023/12/19 01:42:02;;;;;;;11.40;9.60;;;;;;;1.43;100.00;101608.34;5078520;28;20185;-77
2023/12/19 01:44:28;;;;;;;9.90;9.00;;;;;;;1.37;100.00;101612.31;5079895;28;20192;-77
2023/12/19 01:46:53;;;;;;;11.30;10.10;;;;;;;1.40;100.00;101608.19;5078790;28;20794;-77
2023/12/19 01:49:18;;;;;;;12.43;9.60;;;;;;;1.36;100.00;101602.91;5080143;28;20268;-77
2023/12/19 01:51:44;;;;;;;11.23;10.03;;;;;;;1.35;100.00;101608.84;5073583;28;20643;-78
2023/12/19 01:54:10;;;;;;;12.43;11.17;;;;;;;1.34;100.00;101601.09;5074230;28;20181;-77
2023/12/19 01:56:36;;;;;;;12.77;11.37;;;;;;;1.32;100.00;101595.03;5082277;28;20223;-76
2023/12/19 01:59:04;;;;;;;12.80;11.60;;;;;;;1.34;100.00;101601.09;5080864;28;20208;-78
2023/12/19 02:01:30;;;;;;;13.30;11.90;;;;;;;1.36;100.00;101596.94;5079630;28;20709;-77
2023/12/19 02:03:56;;;;;;;13.17;11.53;;;;;;;1.36;100.00;101596.94;5083997;28;20288;-78
2023/12/19 02:06:21;;;;;;;12.73;11.43;;;;;;;1.33;100.00;101602.78;5082763;28;20235;-78
2023/12/19 02:08:48;;;;;;;14.37;12.17;;;;;;;1.34;100.00;101604.53;5082483;28;20215;-77
2023/12/19 02:11:14;;;;;;;14.97;13.40;;;;;;;1.36;100.00;101600.38;5081965;28;20224;-77
2023/12/19 02:13:41;;;;;;;14.97;13.40;;;;;;;1.37;100.00;101594.47;5080032;28;20192;-76
2023/12/19 02:16:06;;;;;;;15.30;13.70;;;;;;;1.39;100.00;101593.66;5082229;28;20185;-78
2023/12/19 02:18:32;;;;;;;16.33;14.03;;;;;;;1.46;100.00;101590.63;5078670;28;20222;-77
2023/12/19 02:20:57;;;;;;;14.03;12.57;;;;;;;1.43;100.00;101599.03;5078799;28;20177;-76
2023/12/19 02:23:22;;;;;;;16.83;14.93;;;;;;;1.42;100.00;101591.28;5084931;28;20192;-77
2023/12/19 02:25:50;;;;;;;15.83;14.17;;;;;;;1.41;100.00;101586.97;5082325;28;20216;-77
2023/12/19 02:28:15;;;;;;;15.97;14.33;;;;;;;1.39;100.00;101586.91;5079719;28;20201;-77
2023/12/19 02:30:41;;;;;;;13.27;11.87;;;;;;;1.37;100.00;101588.50;5081843;28;20256;-77
2023/12/19 02:33:06;;;;;;;15.33;13.80;;;;;;;1.36;100.00;101587.59;5080582;28;20591;-77
2023/12/19 02:35:31;;;;;;;16.10;14.13;;;;;;;1.36;100.00;101589.31;5074755;28;20178;-77
2023/12/19 02:37:57;;;;;;;14.70;13.20;;;;;;;1.34;100.00;101601.09;5080559;28;20228;-76
2023/12/19 02:40:23;;;;;;;15.23;13.73;;;;;;;1.30;100.00;101610.28;5080446;28;20197;-77
2023/12/19 02:42:49;;;;;;;17.20;13.30;;;;;;;1.29;100.00;101610.19;5078538;28;20223;-77
2023/12/19 02:45:15;;;;;;;14.03;12.63;;;;;;;1.26;100.00;101594.75;5080062;28;20215;-77
2023/12/19 02:47:41;;;;;;;14.97;13.30;;;;;;;1.24;100.00;101583.59;5080349;28;20650;-78
2023/12/19 02:50:06;;;;;;;15.40;13.70;;;;;;;1.25;100.00;101590.44;5082465;28;20225;-77
2023/12/19 02:52:32;;;;;;;14.97;13.50;;;;;;;1.20;100.00;101582.56;5077835;28;20195;-77
2023/12/19 02:54:57;;;;;;;14.53;13.13;;;;;;;1.19;100.00;101588.47;5078119;28;20228;-77
2023/12/19 02:57:23;;;;;;;15.13;13.63;;;;;;;1.18;100.00;101584.16;5078631;28;20204;-78
2023/12/19 02:59:48;;;;;;;15.37;13.80;;;;;;;1.20;100.00;101574.91;5077954;28;20183;-76
2023/12/19 03:02:13;;;;;;;14.33;12.83;;;;;;;1.20;100.00;101569.81;5081068;28;20241;-77
2023/12/19 03:04:39;;;;;;;15.03;13.43;;;;;;;1.18;100.00;101571.41;5077041;28;20222;-77
2023/12/19 03:07:04;;;;;;;15.60;14.00;;;;;;;1.21;100.00;101574.13;5076897;28;20304;-78
2023/12/19 03:09:30;;;;;;;15.57;13.90;;;;;;;1.24;100.00;101558.09;5074743;28;20189;-77
2023/12/19 03:12:07;;;;;;;16.93;14.10;;;;;;;1.23;100.00;101549.53;5075212;28;20202;-78
2023/12/19 03:14:34;;;;;;;15.67;14.07;;;;;;;1.23;100.00;101548.69;5076320;28;20207;-77
2023/12/19 03:17:03;;;;;;;15.97;14.37;;;;;;;1.22;100.00;101535.03;5081797;28;20887;-77
2023/12/19 03:19:29;;;;;;;18.00;15.83;;;;;;;1.24;100.00;101538.53;5083010;28;20189;-76
2023/12/19 03:21:54;;;;;;;14.77;13.30;;;;;;;1.21;100.00;101538.41;5078972;28;20204;-77
2023/12/19 03:24:20;;;;;;;16.40;14.70;;;;;;;1.23;100.00;101536.78;5074537;28;20203;-78
2023/12/19 03:26:45;;;;;;;16.57;14.67;;;;;;;1.20;100.00;101529.88;5079471;28;20566;-77
2023/12/19 03:29:10;;;;;;;16.40;14.70;;;;;;;1.16;100.00;101530.53;5066882;28;20202;-77
2023/12/19 03:31:36;;;;;;;17.17;15.43;;;;;;;1.13;100.00;101527.84;5077963;28;20214;-78
2023/12/19 03:34:02;;;;;;;17.57;15.67;;;;;;;1.11;100.00;101524.34;5073752;28;20889;-78
2023/12/19 03:36:31;;;;;;;15.87;14.27;;;;;;;1.07;100.00;101514.78;5076544;28;20186;-76
2023/12/19 03:38:56;;;;;;;15.93;14.33;;;;;;;1.05;100.00;101513.81;5077678;28;20251;-77
2023/12/19 03:41:22;;;;;;;14.93;13.50;;;;;;;1.03;100.00;101523.06;5076777;28;20208;-77
2023/12/19 03:43:47;;;;;;;15.43;13.27;;;;;;;1.03;100.00;101523.97;5077988;28;20755;-78
2023/12/19 03:46:14;;;;;;;15.43;13.83;;;;;;;1.02;100.00;101519.66;5078630;28;20191;-77
2023/12/19 03:48:39;;;;;;;16.60;14.90;;;;;;;1.04;100.00;101517.16;5075539;28;20208;-78
2023/12/19 03:51:05;;;;;;;15.57;13.93;;;;;;;1.00;100.00;101508.50;5076139;28;20261;-77
2023/12/19 03:53:30;;;;;;;16.23;14.53;;;;;;;1.01;100.00;101506.81;5069072;28;20339;-77
2023/12/19 03:55:56;;;;;;;15.53;13.93;;;;;;;0.98;100.00;101509.22;5080956;28;20279;-77
2023/12/19 03:58:21;;;;;;;15.60;14.00;;;;;;;0.96;100.00;101513.38;5076832;28;20214;-78
2023/12/19 04:00:48;;;;;;;13.63;12.27;;;;;;;0.94;100.00;101525.16;5075229;28;22292;-77
2023/12/19 04:03:13;;;;;;;14.00;12.60;;;;;;;0.91;100.00;101524.22;5073250;28;20278;-77
2023/12/19 04:05:39;;;;;;;13.40;12.10;;;;;;;0.90;100.00;101535.19;5077437;28;20215;-76
2023/12/19 04:08:04;;;;;;;14.90;13.10;;;;;;;0.84;100.00;101534.00;5077950;28;20845;-77
2023/12/19 04:10:29;;;;;;;14.20;12.80;;;;;;;0.82;100.00;101535.59;5075881;28;20243;-78
2023/12/19 04:12:55;;;;;;;14.40;12.90;;;;;;;0.81;100.00;101524.56;5075782;28;20286;-78
2023/12/19 04:15:20;;;;;;;14.63;13.03;;;;;;;0.81;100.00;101510.91;5077571;28;20187;-77
2023/12/19 04:17:45;;;;;;;14.70;13.10;;;;;;;0.81;100.00;101505.81;5077761;28;20250;-77
2023/12/19 04:20:12;;;;;;;14.40;12.67;;;;;;;0.80;100.00;101504.97;5077339;28;21024;-77
2023/12/19 04:22:38;;;;;;;15.50;14.00;;;;;;;0.78;100.00;101496.34;5073310;28;20277;-77
2023/12/19 04:25:04;;;;;;;14.57;13.10;;;;;;;0.80;100.00;101493.88;5076996;28;20645;-76
2023/12/19 04:27:29;;;;;;;14.07;12.57;;;;;;;0.78;100.00;101501.44;5076846;28;20752;-76
2023/12/19 04:29:57;;;;;;;13.40;11.73;;;;;;;0.76;100.00;101503.03;5076408;28;20315;-77
2023/12/19 04:32:23;;;;;;;13.73;12.07;;;;;;;0.75;100.00;101508.94;5077938;28;20278;-77
2023/12/19 04:34:48;;;;;;;13.97;12.47;;;;;;;0.75;100.00;101506.38;5078765;28;20189;-77
2023/12/19 04:37:13;;;;;;;13.93;12.50;;;;;;;0.75;100.00;101499.63;5083011;28;20865;-76
2023/12/19 04:39:39;;;;;;;13.20;11.90;;;;;;;0.73;100.00;101505.44;5077749;28;20286;-77
2023/12/19 04:42:07;;;;;;;14.33;12.83;;;;;;;0.75;100.00;101489.44;5078653;28;20282;-77
2023/12/19 04:44:36;;;;;;;14.17;12.73;;;;;;;0.74;100.00;101479.16;5075918;28;20194;-78
2023/12/19 04:47:02;;;;;;;13.67;12.27;;;;;;;0.73;100.00;101478.28;5079415;28;20202;-76
2023/12/19 04:49:28;;;;;;;12.87;11.47;;;;;;;0.75;100.00;101492.00;5075532;28;20189;-77
2023/12/19 04:51:53;;;;;;;13.80;12.37;;;;;;;0.76;100.00;101497.94;5080755;28;20205;-77
2023/12/19 04:54:18;;;;;;;13.03;11.70;;;;;;;0.78;100.00;101488.72;5074197;28;20308;-77
2023/12/19 04:56:44;;;;;;;13.83;12.43;;;;;;;0.80;100.00;101482.03;5074881;28;20192;-77
2023/12/19 04:59:09;;;;;;;13.27;11.87;;;;;;;0.79;100.00;101477.72;5076165;28;20190;-77
2023/12/19 05:01:36;;;;;;;13.10;11.77;;;;;;;0.79;100.00;101469.19;5071904;28;20195;-76
2023/12/19 05:04:01;;;;;;;15.33;12.20;;;;;;;0.80;100.00;101463.28;5077604;28;20189;-77
2023/12/19 05:06:26;;;;;;;13.90;12.50;;;;;;;0.81;100.00;101459.94;5074834;28;20206;-78
2023/12/19 05:08:52;;;;;;;13.23;11.87;;;;;;;0.81;100.00;101459.94;5077309;28;20296;-76
2023/12/19 05:11:17;;;;;;;12.27;10.97;;;;;;;0.81;100.00;101473.56;5076691;28;20497;-75
2023/12/19 05:13:42;;;;;;;14.23;11.77;;;;;;;0.81;100.00;101485.44;5074778;28;20211;-77
2023/12/19 05:16:11;;;;;;;12.53;11.27;;;;;;;0.81;100.00;101490.53;5071319;28;20574;-77
2023/12/19 05:18:37;;;;;;;12.23;11.03;;;;;;;0.83;100.00;101492.34;5075925;28;20223;-77
2023/12/19 05:21:03;;;;;;;13.43;11.57;;;;;;;0.83;100.00;101477.06;5078642;28;20404;-77
2023/12/19 05:23:28;;;;;;;14.13;12.63;;;;;;;0.85;100.00;101484.78;5080726;28;20194;-76
2023/12/19 05:25:53;;;;;;;13.03;11.63;;;;;;;0.84;100.00;101486.44;5073806;28;20209;-77
2023/12/19 05:28:19;;;;;;;12.50;11.20;;;;;;;0.81;100.00;101465.03;5082460;28;20224;-77
2023/12/19 05:30:44;;;;;;;13.20;11.80;;;;;;;0.78;100.00;101464.88;5081772;28;20243;-77
2023/12/19 05:33:09;;;;;;;14.23;12.73;;;;;;;0.74;100.00;101472.41;5074739;28;20196;-77
2023/12/19 05:35:35;;;;;;;13.50;12.10;;;;;;;0.75;100.00;101473.25;5079940;28;20188;-77
2023/12/19 05:38:01;;;;;;;12.23;10.47;;;;;;;0.74;100.00;101471.50;5084890;28;20705;-78
2023/12/19 05:40:27;;;;;;;12.97;11.57;;;;;;;0.74;100.00;101494.44;5084491;28;20208;-78
2023/12/19 05:42:56;;;;;;;12.17;10.97;;;;;;;0.75;100.00;101501.28;5082198;28;20197;-76
2023/12/19 05:45:21;;;;;;;11.63;10.43;;;;;;;0.75;100.00;101507.28;5084478;28;20259;-77
2023/12/19 05:47:47;;;;;;;13.57;12.27;;;;;;;0.76;100.00;101516.66;5083376;28;20334;-77
2023/12/19 05:50:12;;;;;;;13.80;12.40;;;;;;;0.76;100.00;101505.59;5080928;28;20222;-76
2023/12/19 05:52:38;;;;;;;12.63;11.40;;;;;;;0.75;100.00;101524.22;5077500;28;20190;-76
2023/12/19 05:55:04;;;;;;;12.07;10.77;;;;;;;0.74;100.00;101523.38;5078648;28;20181;-77
2023/12/19 05:57:29;;;;;;;11.97;10.77;;;;;;;0.72;100.00;101527.50;5079366;28;20205;-77
2023/12/19 05:59:54;;;;;;;12.87;11.57;;;;;;;0.71;100.00;101525.75;5082371;28;20186;-77
2023/12/19 06:02:21;;;;;;;12.20;10.90;;;;;;;0.70;100.00;101523.09;5076011;28;20204;-78
2023/12/19 06:04:47;;;;;;;11.73;10.53;;;;;;;0.70;100.00;101523.09;5080383;28;20417;-77
2023/12/19 06:07:12;;;;;;;13.77;11.83;;;;;;;0.69;100.00;101529.00;5080908;28;20221;-77
2023/12/19 06:09:38;;;;;;;12.53;11.17;;;;;;;0.69;100.00;101534.97;5084854;28;20548;-78
2023/12/19 06:12:04;;;;;;;11.70;10.50;;;;;;;0.67;100.00;101530.63;5082780;28;20647;-79
2023/12/19 06:14:29;;;;;;;11.27;10.07;;;;;;;0.67;100.00;101515.31;5080406;28;20185;-78
2023/12/19 06:16:55;;;;;;;10.87;9.87;;;;;;;0.66;100.00;101499.16;5082958;28;20211;-78
2023/12/19 06:19:20;;;;;;;11.53;10.40;;;;;;;0.66;100.00;101483.00;5084850;28;20218;-77
2023/12/19 06:21:45;;;;;;;12.23;10.90;;;;;;;0.66;100.00;101483.00;5081491;28;20273;-76
2023/12/19 06:24:11;;;;;;;11.87;10.67;;;;;;;0.63;100.00;101495.56;5081931;28;20254;-76
2023/12/19 06:26:36;;;;;;;13.30;11.90;;;;;;;0.67;100.00;101495.81;5081010;28;20195;-77
2023/12/19 06:29:03;;;;;;;12.40;11.10;;;;;;;0.68;100.00;101489.06;5080470;28;20196;-77
2023/12/19 06:31:29;;;;;;;12.60;11.30;;;;;;;0.72;100.00;101501.13;5078609;28;20214;-78
2023/12/19 06:33:54;;;;;;;12.87;11.57;;;;;;;0.70;100.00;101506.16;5076015;28;20227;-79
2023/12/19 06:36:32;;;;;;;13.30;11.63;;;;;;;0.71;100.00;101520.66;5076818;28;20189;-78
2023/12/19 06:38:57;;;;;;;12.90;11.60;;;;;;;0.66;100.00;101514.44;5076070;28;20192;-77
2023/12/19 06:41:23;;;;;;;12.17;10.90;;;;;;;0.66;100.00;101526.31;5079686;28;20184;-77
2023/12/19 06:43:48;;;;;;;13.87;12.03;;;;;;;0.66;100.00;101504.25;5078383;28;20252;-75
2023/12/19 06:46:17;;;;;;;13.17;11.77;;;;;;;0.65;100.00;101502.50;5079621;28;20191;-77
2023/12/19 06:48:43;;;;;;;13.43;11.93;;;;;;;0.65;100.00;101522.00;5081030;28;20194;-77
2023/12/19 06:51:09;;;;;;;12.90;11.60;;;;;;;0.68;100.00;101533.22;5082617;28;20204;-76
2023/12/19 06:53:34;;;;;;;14.23;12.73;;;;;;;0.72;100.00;101517.31;5078740;28;20284;-77
2023/12/19 06:56:00;;;;;;;11.63;10.43;;;;;;;0.75;100.00;101529.31;5079216;28;20609;-77
2023/12/19 06:58:25;;;;;;;13.83;12.37;;;;;;;0.80;100.00;101527.88;5078245;28;20210;-78
2023/12/19 07:00:51;;;;;;;14.00;12.57;;;;;;;0.85;100.00;101516.25;5084071;28;20188;-76
2023/12/19 07:03:18;;;;;;;12.80;11.50;;;;;;;0.91;100.00;101513.13;5079228;28;20403;-77
2023/12/19 07:05:43;;;;;;;14.13;12.57;;;;;;;0.94;100.00;101520.06;5078835;28;20244;-77
2023/12/19 07:08:09;;;;;;;12.97;11.20;;;;;;;0.98;100.00;101525.38;5079670;28;20707;-77
2023/12/19 07:10:34;;;;;;;12.67;11.37;;;;;;;1.03;100.00;101541.81;5072719;28;20236;-78
2023/12/19 07:13:00;;;;;;;12.43;11.13;;;;;;;1.07;100.00;101540.28;5079549;28;20668;-77
2023/12/19 07:15:25;;;;;;;12.27;11.03;;;;;;;1.12;100.00;101538.84;5080395;28;20180;-77
2023/12/19 07:17:51;;;;;;;13.63;12.23;;;;;;;1.20;100.00;101541.78;5081831;28;20216;-77
2023/12/19 07:20:16;;;;;;;12.03;10.83;;;;;;;1.21;100.00;101531.63;5078742;28;20273;-77
2023/12/19 07:22:41;;;;;;;12.50;11.20;;;;;;;1.23;100.00;101539.34;5080163;28;20664;-77
2023/12/19 07:25:07;;;;;;;12.67;11.37;;;;;;;1.19;100.00;101535.78;5083131;28;20195;-77
2023/12/19 07:27:34;;;;;;;12.13;10.87;;;;;;;1.14;100.00;101521.06;5079728;28;20980;-77
2023/12/19 07:29:59;;;;;;;12.63;11.30;;;;;;;1.09;100.00;101505.53;5080317;28;20213;-77
2023/12/19 07:32:25;;;;;;;12.07;10.87;;;;;;;1.05;100.00;101494.31;5077957;28;20184;-76
2023/12/19 07:34:51;;;;;;;12.43;11.13;;;;;;;1.00;100.00;101511.03;5081708;28;20242;-77
2023/12/19 07:37:16;;;;;;;12.30;10.67;;;;;;;1.00;100.00;101512.72;5073881;28;20601;-76
2023/12/19 07:39:41;;;;;;;13.73;12.10;;;;;;;0.98;100.00;101506.69;5071652;28;20212;-75
2023/12/19 07:42:07;;;;;;;12.87;11.57;;;;;;;0.96;100.00;101505.72;5078735;28;20210;-77
2023/12/19 07:44:33;;;;;;;12.47;11.17;;;;;;;0.96;100.00;101504.03;5075506;28;20183;-76
2023/12/19 07:46:58;;;;;;;12.83;11.43;;;;;;;0.97;100.00;101505.78;5076158;28;20727;-77
2023/12/19 07:49:24;;;;;;;12.43;11.13;;;;;;;0.98;100.00;101507.53;5074813;28;20207;-76
2023/12/19 07:51:49;;;;;;;12.37;11.07;;;;;;;0.96;100.00;101504.03;5081206;28;20222;-76
2023/12/19 07:54:14;;;;;;;13.37;12.00;;;;;;;0.97;100.00;101518.53;5072343;28;20197;-76
2023/12/19 07:56:41;;;;;;;12.20;10.97;;;;;;;1.00;100.00;101516.16;5079465;28;20220;-77
2023/12/19 07:59:06;;;;;;;12.23;11.03;;;;;;;1.03;100.00;101510.31;5076632;28;20254;-77
2023/12/19 08:01:32;;;;;;;12.40;11.10;;;;;;;1.04;100.00;101494.22;5082266;28;20260;-77
2023/12/19 08:03:57;;;;;;;12.40;11.10;;;;;;;1.06;100.00;101496.03;5077975;28;20202;-77
2023/12/19 08:06:23;;;;;;;12.57;11.30;;;;;;;1.10;100.00;101486.88;5075830;28;20745;-76
2023/12/19 08:08:52;;;;;;;12.83;11.50;;;;;;;1.16;100.00;101493.97;5069473;28;20228;-77
2023/12/19 08:11:18;;;;;;;12.00;10.80;;;;;;;1.21;100.00;101485.72;5078032;28;20208;-77
2023/12/19 08:13:44;;;;;;;14.07;11.57;;;;;;;1.22;100.00;101478.94;5077256;28;20205;-77
2023/12/19 08:16:09;;;;;;;11.47;10.37;;;;;;;1.25;100.00;101491.84;5080344;28;20215;-77
2023/12/19 08:18:36;;;;;;;12.43;11.10;;;;;;;1.30;100.00;101472.56;5079798;28;20208;-75
2023/12/19 08:21:05;;;;;;;12.37;11.07;;;;;;;1.33;100.00;101482.91;5078125;28;20211;-76
2023/12/19 08:23:30;;;;;;;12.57;11.37;;;;;;;1.42;100.00;101476.47;5078318;28;20217;-77
2023/12/19 08:25:56;;;;;;;12.97;11.67;;;;;;;1.47;100.00;101467.38;5082106;28;20619;-76
2023/12/19 08:28:21;;;;;;;11.43;10.33;;;;;;;1.53;100.00;101457.44;5077529;28;20201;-77
2023/12/19 08:30:47;;;;;;;12.97;11.23;;;;;;;1.51;100.00;101461.63;5073357;28;20301;-77
2023/12/19 08:33:13;;;;;;;10.90;9.87;;;;;;;1.54;100.00;101461.75;5076352;28;20650;-77
2023/12/19 08:35:38;;;;;;;11.97;10.63;;;;;;;1.60;100.00;101458.59;5078665;28;20201;-77
2023/12/19 08:38:05;;;;;;;12.00;10.80;;;;;;;1.62;100.00;101462.09;5075226;28;20296;-76
2023/12/19 08:40:30;;;;;;;11.63;10.43;;;;;;;1.66;100.00;101456.34;5072755;28;20669;-77
2023/12/19 08:42:56;;;;;;;12.10;10.80;;;;;;;1.74;100.00;101447.34;5078917;28;20287;-77
2023/12/19 08:45:26;;;;;;;10.47;9.47;;;;;;;1.73;100.00;101447.28;5078534;28;20540;-78
2023/12/19 08:47:53;;;;;;;11.40;10.30;;;;;;;1.77;100.00;101438.97;5079752;28;20214;-77
2023/12/19 08:50:19;;;;;;;11.13;9.93;;;;;;;1.81;100.00;101435.78;5082486;28;20217;-76
2023/12/19 08:52:44;;;;;;;11.07;9.83;;;;;;;1.85;100.00;101440.19;5079792;28;20252;-78
2023/12/19 08:55:11;;;;;;;10.80;9.73;;;;;;;1.95;100.00;101429.63;5083380;28;20814;-77
2023/12/19 08:57:44;;;;;;;11.53;10.33;;;;;;;1.94;100.00;101434.63;5083639;28;20732;-78
2023/12/19 09:00:19;;;;;;;10.30;9.20;;;;;;;1.89;100.00;101438.69;5083752;28;20189;-77
2023/12/19 09:02:46;;;;;;;12.03;10.83;;;;;;;1.93;100.00;101436.31;5084000;28;20243;-77
2023/12/19 09:05:12;;;;;;;10.37;9.20;;;;;;;1.90;100.00;101459.16;5084213;28;20202;-78
2023/12/19 09:07:38;;;;;;;12.33;10.27;;;;;;;1.96;100.00;101477.31;5084099;28;20244;-78
2023/12/19 09:10:05;;;;;;;11.60;8.93;;;;;;;2.05;100.00;101479.38;5080620;28;20244;-78
2023/12/19 09:12:30;;;;;;;10.70;9.70;;;;;;;2.16;100.00;101477.31;5081280;28;20200;-77
2023/12/19 09:14:56;;;;;;;10.07;9.07;;;;;;;2.29;100.00;101483.84;5074305;28;20181;-78
2023/12/19 09:17:21;;;;;;;10.67;9.67;;;;;;;2.37;100.00;101477.38;5070246;28;20212;-78
2023/12/19 09:19:47;;;;;;;11.03;9.90;;;;;;;2.44;100.00;101466.66;5070100;28;20212;-77
2023/12/19 09:22:12;;;;;;;9.80;8.90;;;;;;;2.52;100.00;101476.31;5077930;28;20275;-77
2023/12/19 09:24:37;;;;;;;10.20;9.20;;;;;;;2.56;100.00;101457.75;5078294;28;20301;-78
2023/12/19 09:27:03;;;;;;;9.97;8.97;;;;;;;2.61;100.00;101450.28;5068439;28;20821;-77
2023/12/19 09:29:28;;;;;;;11.13;9.93;;;;;;;2.67;100.00;101437.75;5075894;28;22415;-78
2023/12/19 09:31:54;;;;;;;10.47;9.47;;;;;;;2.65;100.00;101439.38;5079199;28;20592;-77
2023/12/19 09:34:20;;;;;;;10.03;9.03;;;;;;;2.67;100.00;101441.19;5073128;28;20902;-77
2023/12/19 09:36:45;;;;;;;9.80;8.83;;;;;;;2.70;100.00;101448.13;5075212;28;20294;-78
2023/12/19 09:39:14;;;;;;;10.00;9.00;;;;;;;2.78;100.00;101439.06;5073260;28;20196;-78
2023/12/19 09:41:41;;;;;;;11.07;10.00;;;;;;;2.87;100.00;101442.00;5074783;28;21442;-78
2023/12/19 09:44:07;;;;;;;10.63;9.63;;;;;;;2.97;100.00;101448.38;5072946;28;20197;-77
2023/12/19 09:46:33;;;;;;;10.00;8.97;;;;;;;3.05;100.00;101451.25;5076414;28;20192;-78
2023/12/19 09:49:00;;;;;;;10.53;9.53;;;;;;;3.09;100.00;101445.44;5072665;28;20200;-76
2023/12/19 09:51:30;;;;;;;10.50;9.50;;;;;;;3.08;100.00;101441.13;5075925;28;20212;-78
2023/12/19 09:53:57;;;;;;;10.00;9.13;;;;;;;3.08;100.00;101438.59;5074353;28;20192;-78
2023/12/19 09:56:23;;;;;;;10.57;9.47;;;;;;;3.19;100.00;101428.78;5076693;28;20209;-77
2023/12/19 09:58:49;;;;;;;10.00;9.10;;;;;;;3.16;100.00;101434.66;5075615;28;20201;-76
2023/12/19 10:01:18;;;;;;;8.97;8.17;;;;;;;3.16;100.00;101433.78;5064844;28;20637;-76
2023/12/19 10:03:44;;;;;;;8.97;8.03;;;;;;;3.18;100.00;101427.03;5075120;28;20185;-77
2023/12/19 10:06:09;;;;;;;10.23;9.23;;;;;;;3.22;100.00;101431.47;5070310;28;20715;-76
2023/12/19 10:08:44;;;;;;;9.20;8.33;;;;;;;3.14;100.00;101413.25;5077828;28;20212;-77
2023/12/19 10:11:19;;;;;;;10.50;9.40;;;;;;;3.10;100.00;101421.63;5069221;28;20216;-77
2023/12/19 10:13:47;;;;;;;9.53;8.63;;;;;;;3.10;100.00;101405.41;5074240;28;20833;-78
2023/12/19 10:16:17;;;;;;;9.03;8.13;;;;;;;3.05;100.00;101400.09;5077145;28;20181;-76
2023/12/19 10:18:44;;;;;;;10.27;9.10;;;;;;;3.12;100.00;101396.09;5077963;28;20209;-77
2023/12/19 10:21:13;;;;;;;9.43;8.53;;;;;;;3.12;100.00;101396.97;5076214;28;20286;-77
2023/12/19 10:23:39;;;;;;;10.60;8.93;;;;;;;3.12;100.00;101399.53;5076810;28;20190;-78
2023/12/19 10:26:06;;;;;;;9.93;8.93;;;;;;;3.22;100.00;101402.44;5083165;28;20185;-77
2023/12/19 10:28:36;;;;;;;9.97;8.97;;;;;;;3.22;100.00;101389.66;5078883;28;20212;-77
2023/12/19 10:31:14;;;;;;;9.63;8.73;;;;;;;3.22;100.00;101394.78;5078129;28;20221;-78
2023/12/19 10:33:50;;;;;;;11.10;10.00;;;;;;;3.32;100.00;101389.22;5075752;28;20189;-77
2023/12/19 10:36:26;;;;;;;9.50;8.60;;;;;;;3.35;100.00;101372.28;5080551;28;20180;-77
2023/12/19 10:38:53;;;;;;;9.93;8.93;;;;;;;3.39;100.00;101365.59;5079560;28;20209;-78
2023/12/19 10:41:29;;;;;;;10.27;9.27;;;;;;;3.50;100.00;101354.06;5076894;28;20239;-77
2023/12/19 10:43:57;;;;;;;10.40;9.40;;;;;;;3.57;100.00;101346.63;5083384;28;20185;-78
2023/12/19 10:46:26;;;;;;;10.17;9.27;;;;;;;3.69;100.00;101336.81;5079508;28;20186;-78
2023/12/19 10:48:57;;;;;;;8.57;7.77;;;;;;;3.73;100.00;101336.13;5081578;28;20216;-77
2023/12/19 10:51:34;;;;;;;9.80;8.90;;;;;;;3.83;100.00;101336.44;5079431;28;20208;-77
2023/12/19 10:54:21;;;;;;;8.90;8.00;;;;;;;3.89;100.00;101339.25;5074231;28;20203;-77
2023/12/19 10:57:16;;;;;;;9.50;8.60;;;;;;;3.99;100.00;101336.16;5078461;28;20214;-78
2023/12/19 10:59:56;;;;;;;9.23;8.37;;;;;;;4.11;100.00;101335.72;5083283;28;20657;-77
2023/12/19 11:02:24;;;;;;;8.70;7.90;;;;;;;4.27;100.00;101340.56;5084588;28;20641;-77
2023/12/19 11:04:55;;;;;;;9.00;8.20;;;;;;;4.46;100.00;101322.34;5085952;28;20190;-78
2023/12/19 11:07:22;;;;;;;9.17;8.30;;;;;;;4.61;100.00;101314.31;5083926;28;20225;-77